sensor_id;sensor_type;location;lat;lon;timestamp;pressure;altitude;pressure_sealevel;temperature;humidity
9672;BME280;4874;43.568;27.824;2023-04-28T00:01:10;99127.72;;;7.55;100.00
9672;BME280;4874;43.568;27.824;2023-04-28T00:03:37;99137.56;;;7.64;100.00
9672;BME280;4874;43.568;27.824;2023-04-28T00:06:04;99133.69;;;7.68;100.00
9672;BME280;4874;43.568;27.824;2023-04-28T00:08:31;99131.44;;;7.64;100.00
9672;BME280;4874;43.568;27.824;2023-04-28T00:10:58;99118.69;;;7.58;100.00
9672;BME280;4874;43.568;27.824;2023-04-28T00:13:24;99126.03;;;7.65;100.00
9672;BME280;4874;43.568;27.824;2023-04-28T00:15:52;99124.56;;;7.61;100.00
9672;BME280;4874;43.568;27.824;2023-04-28T00:18:19;99131.69;;;7.50;100.00
9672;BME280;4874;43.568;27.824;2023-04-28T00:20:45;99126.63;;;7.58;100.00
9672;BME280;4874;43.568;27.824;2023-04-28T00:23:12;99133.09;;;7.65;100.00
9672;BME280;4874;43.568;27.824;2023-04-28T00:25:39;99129.75;;;7.41;100.00
9672;BME280;4874;43.568;27.824;2023-04-28T00:28:05;99130.84;;;7.38;100.00
9672;BME280;4874;43.568;27.824;2023-04-28T00:30:32;99132.88;;;7.46;100.00
9672;BME280;4874;43.568;27.824;2023-04-28T00:32:58;99125.34;;;7.52;100.00
9672;BME280;4874;43.568;27.824;2023-04-28T00:35:25;99130.94;;;7.48;100.00
9672;BME280;4874;43.568;27.824;2023-04-28T00:37:51;99121.47;;;7.34;100.00
9672;BME280;4874;43.568;27.824;2023-04-28T00:40:18;99127.50;;;7.36;100.00
9672;BME280;4874;43.568;27.824;2023-04-28T00:42:44;99123.16;;;7.46;100.00
9672;BME280;4874;43.568;27.824;2023-04-28T00:45:11;99129.63;;;7.20;100.00
9672;BME280;4874;43.568;27.824;2023-04-28T00:47:37;99126.63;;;7.02;100.00
9672;BME280;4874;43.568;27.824;2023-04-28T00:50:04;99134.44;;;7.15;100.00
9672;BME280;4874;43.568;27.824;2023-04-28T00:52:31;99124.13;;;7.23;100.00
9672;BME280;4874;43.568;27.824;2023-04-28T00:54:58;99133.38;;;7.40;100.00
9672;BME280;4874;43.568;27.824;2023-04-28T00:57:25;99128.09;;;7.40;100.00
9672;BME280;4874;43.568;27.824;2023-04-28T00:59:52;99126.75;;;7.34;100.00
9672;BME280;4874;43.568;27.824;2023-04-28T01:02:19;99135.31;;;7.27;100.00
9672;BME280;4874;43.568;27.824;2023-04-28T01:04:45;99143.06;;;7.17;100.00
9672;BME280;4874;43.568;27.824;2023-04-28T01:07:12;99146.19;;;7.22;100.00
9672;BME280;4874;43.568;27.824;2023-04-28T01:09:39;99136.84;;;7.18;100.00
9672;BME280;4874;43.568;27.824;2023-04-28T01:12:05;99143.31;;;7.14;100.00
9672;BME280;4874;43.568;27.824;2023-04-28T01:14:32;99140.56;;;7.15;100.00
9672;BME280;4874;43.568;27.824;2023-04-28T01:16:59;99135.25;;;7.04;100.00
9672;BME280;4874;43.568;27.824;2023-04-28T01:19:26;99135.78;;;7.09;100.00
9672;BME280;4874;43.568;27.824;2023-04-28T01:21:53;99135.97;;;6.95;100.00
9672;BME280;4874;43.568;27.824;2023-04-28T01:24:20;99131.03;;;6.91;100.00
9672;BME280;4874;43.568;27.824;2023-04-28T01:26:46;99131.69;;;7.05;100.00
9672;BME280;4874;43.568;27.824;2023-04-28T01:29:13;99132.63;;;7.04;100.00
9672;BME280;4874;43.568;27.824;2023-04-28T01:31:39;99125.41;;;7.06;100.00
9672;BME280;4874;43.568;27.824;2023-04-28T01:34:06;99125.22;;;7.09;100.00
9672;BME280;4874;43.568;27.824;2023-04-28T01:36:33;99124.94;;;7.01;100.00
9672;BME280;4874;43.568;27.824;2023-04-28T01:39:02;99128.44;;;7.02;100.00
9672;BME280;4874;43.568;27.824;2023-04-28T01:41:29;99123.50;;;7.08;100.00
9672;BME280;4874;43.568;27.824;2023-04-28T01:43:56;99114.38;;;6.90;100.00
9672;BME280;4874;43.568;27.824;2023-04-28T01:46:22;99117.38;;;6.97;100.00
9672;BME280;4874;43.568;27.824;2023-04-28T01:48:49;99117.16;;;7.00;100.00
9672;BME280;4874;43.568;27.824;2023-04-28T01:51:16;99112.44;;;6.92;100.00
9672;BME280;4874;43.568;27.824;2023-04-28T01:53:42;99118.56;;;6.82;100.00
9672;BME280;4874;43.568;27.824;2023-04-28T01:56:09;99123.00;;;6.92;100.00
9672;BME280;4874;43.568;27.824;2023-04-28T01:58:35;99119.78;;;6.89;100.00
9672;BME280;4874;43.568;27.824;2023-04-28T02:01:02;99124.06;;;6.79;100.00
9672;BME280;4874;43.568;27.824;2023-04-28T02:03:29;99119.50;;;6.70;100.00
9672;BME280;4874;43.568;27.824;2023-04-28T02:05:55;99125.38;;;6.73;100.00
9672;BME280;4874;43.568;27.824;2023-04-28T02:08:22;99118.94;;;6.88;100.00
9672;BME280;4874;43.568;27.824;2023-04-28T02:10:48;99121.09;;;6.83;100.00
9672;BME280;4874;43.568;27.824;2023-04-28T02:13:16;99118.81;;;6.90;100.00
9672;BME280;4874;43.568;27.824;2023-04-28T02:15:43;99118.16;;;6.64;100.00
9672;BME280;4874;43.568;27.824;2023-04-28T02:18:09;99111.34;;;6.73;100.00
9672;BME280;4874;43.568;27.824;2023-04-28T02:20:36;99116.59;;;6.62;100.00
9672;BME280;4874;43.568;27.824;2023-04-28T02:23:03;99124.00;;;6.57;100.00
9672;BME280;4874;43.568;27.824;2023-04-28T02:25:29;99118.53;;;6.36;100.00
9672;BME280;4874;43.568;27.824;2023-04-28T02:27:56;99113.16;;;6.38;100.00
9672;BME280;4874;43.568;27.824;2023-04-28T02:30:22;99116.75;;;6.37;100.00
9672;BME280;4874;43.568;27.824;2023-04-28T02:32:49;99122.47;;;6.54;100.00
9672;BME280;4874;43.568;27.824;2023-04-28T02:35:17;99115.59;;;6.41;100.00
9672;BME280;4874;43.568;27.824;2023-04-28T02:37:43;99124.44;;;6.40;100.00
9672;BME280;4874;43.568;27.824;2023-04-28T02:40:10;99115.53;;;6.30;100.00
9672;BME280;4874;43.568;27.824;2023-04-28T02:42:37;99131.00;;;6.34;100.00
9672;BME280;4874;43.568;27.824;2023-04-28T02:45:04;99125.97;;;6.31;100.00
9672;BME280;4874;43.568;27.824;2023-04-28T02:47:30;99132.63;;;6.24;100.00
9672;BME280;4874;43.568;27.824;2023-04-28T02:49:57;99135.06;;;6.27;100.00
9672;BME280;4874;43.568;27.824;2023-04-28T02:52:23;99136.63;;;6.30;100.00
9672;BME280;4874;43.568;27.824;2023-04-28T02:54:50;99134.50;;;6.11;100.00
9672;BME280;4874;43.568;27.824;2023-04-28T02:57:19;99134.50;;;6.11;100.00
9672;BME280;4874;43.568;27.824;2023-04-28T02:59:46;99134.56;;;6.22;100.00
9672;BME280;4874;43.568;27.824;2023-04-28T03:02:13;99135.34;;;6.12;100.00
9672;BME280;4874;43.568;27.824;2023-04-28T03:04:40;99138.59;;;6.15;100.00
9672;BME280;4874;43.568;27.824;2023-04-28T03:07:07;99135.66;;;6.07;100.00
9672;BME280;4874;43.568;27.824;2023-04-28T03:09:33;99139.22;;;6.19;100.00
9672;BME280;4874;43.568;27.824;2023-04-28T03:12:00;99136.63;;;6.06;100.00
9672;BME280;4874;43.568;27.824;2023-04-28T03:14:28;99142.56;;;5.97;100.00
9672;BME280;4874;43.568;27.824;2023-04-28T03:16:55;99146.81;;;5.74;100.00
9672;BME280;4874;43.568;27.824;2023-04-28T03:19:23;99146.41;;;5.68;100.00
9672;BME280;4874;43.568;27.824;2023-04-28T03:21:49;99156.56;;;5.49;100.00
9672;BME280;4874;43.568;27.824;2023-04-28T03:24:16;99157.94;;;5.42;100.00
9672;BME280;4874;43.568;27.824;2023-04-28T03:26:43;99149.34;;;5.40;100.00
9672;BME280;4874;43.568;27.824;2023-04-28T03:29:09;99165.13;;;5.40;100.00
9672;BME280;4874;43.568;27.824;2023-04-28T03:31:36;99164.34;;;5.50;100.00
9672;BME280;4874;43.568;27.824;2023-04-28T03:34:03;99168.34;;;5.56;100.00
9672;BME280;4874;43.568;27.824;2023-04-28T03:36:30;99167.94;;;5.49;100.00
9672;BME280;4874;43.568;27.824;2023-04-28T03:38:57;99172.69;;;5.57;100.00
9672;BME280;4874;43.568;27.824;2023-04-28T03:41:23;99187.00;;;5.65;100.00
9672;BME280;4874;43.568;27.824;2023-04-28T03:43:50;99186.22;;;5.76;100.00
9672;BME280;4874;43.568;27.824;2023-04-28T03:46:18;99184.88;;;5.58;100.00
9672;BME280;4874;43.568;27.824;2023-04-28T03:48:45;99198.69;;;5.74;100.00
9672;BME280;4874;43.568;27.824;2023-04-28T03:51:11;99193.19;;;5.89;100.00
9672;BME280;4874;43.568;27.824;2023-04-28T03:53:38;99195.97;;;6.12;100.00
9672;BME280;4874;43.568;27.824;2023-04-28T03:56:05;99202.00;;;6.48;100.00
9672;BME280;4874;43.568;27.824;2023-04-28T03:58:31;99199.72;;;6.44;100.00
9672;BME280;4874;43.568;27.824;2023-04-28T04:00:58;99207.78;;;6.53;100.00
9672;BME280;4874;43.568;27.824;2023-04-28T04:03:28;99202.56;;;6.64;100.00
9672;BME280;4874;43.568;27.824;2023-04-28T04:05:55;99200.97;;;6.51;100.00
9672;BME280;4874;43.568;27.824;2023-04-28T04:08:22;99209.66;;;6.40;100.00
9672;BME280;4874;43.568;27.824;2023-04-28T04:10:49;99217.56;;;6.40;100.00
9672;BME280;4874;43.568;27.824;2023-04-28T04:13:15;99219.22;;;6.41;100.00
9672;BME280;4874;43.568;27.824;2023-04-28T04:15:42;99222.16;;;6.49;100.00
9672;BME280;4874;43.568;27.824;2023-04-28T04:18:09;99218.06;;;6.45;100.00
9672;BME280;4874;43.568;27.824;2023-04-28T04:20:35;99216.53;;;6.54;100.00
9672;BME280;4874;43.568;27.824;2023-04-28T04:23:02;99220.28;;;6.51;100.00
9672;BME280;4874;43.568;27.824;2023-04-28T04:25:29;99227.97;;;6.65;100.00
9672;BME280;4874;43.568;27.824;2023-04-28T04:27:55;99220.41;;;6.61;100.00
9672;BME280;4874;43.568;27.824;2023-04-28T04:30:22;99230.91;;;6.73;100.00
9672;BME280;4874;43.568;27.824;2023-04-28T04:32:48;99226.88;;;6.80;100.00
9672;BME280;4874;43.568;27.824;2023-04-28T04:35:15;99227.00;;;6.90;100.00
9672;BME280;4874;43.568;27.824;2023-04-28T04:37:42;99216.75;;;6.74;100.00
9672;BME280;4874;43.568;27.824;2023-04-28T04:40:09;99227.34;;;6.85;100.00
9672;BME280;4874;43.568;27.824;2023-04-28T04:42:35;99226.19;;;7.00;100.00
9672;BME280;4874;43.568;27.824;2023-04-28T04:45:02;99225.47;;;6.98;100.00
9672;BME280;4874;43.568;27.824;2023-04-28T04:47:29;99233.38;;;6.98;100.00
9672;BME280;4874;43.568;27.824;2023-04-28T04:49:55;99220.44;;;7.06;100.00
9672;BME280;4874;43.568;27.824;2023-04-28T04:52:22;99230.06;;;7.18;100.00
9672;BME280;4874;43.568;27.824;2023-04-28T04:54:49;99227.84;;;7.36;100.00
9672;BME280;4874;43.568;27.824;2023-04-28T04:57:16;99226.38;;;7.21;100.00
9672;BME280;4874;43.568;27.824;2023-04-28T04:59:42;99234.31;;;7.43;100.00
9672;BME280;4874;43.568;27.824;2023-04-28T05:02:09;99225.31;;;7.46;100.00
9672;BME280;4874;43.568;27.824;2023-04-28T05:04:36;99229.56;;;7.59;100.00
9672;BME280;4874;43.568;27.824;2023-04-28T05:07:02;99233.97;;;7.70;100.00
9672;BME280;4874;43.568;27.824;2023-04-28T05:09:29;99228.69;;;7.70;100.00
9672;BME280;4874;43.568;27.824;2023-04-28T05:11:57;99225.34;;;7.79;100.00
9672;BME280;4874;43.568;27.824;2023-04-28T05:14:23;99223.28;;;7.82;100.00
9672;BME280;4874;43.568;27.824;2023-04-28T05:16:50;99227.75;;;7.93;100.00
9672;BME280;4874;43.568;27.824;2023-04-28T05:19:17;99211.41;;;7.88;100.00
9672;BME280;4874;43.568;27.824;2023-04-28T05:21:43;99215.72;;;8.00;100.00
9672;BME280;4874;43.568;27.824;2023-04-28T05:24:13;99227.50;;;8.07;100.00
9672;BME280;4874;43.568;27.824;2023-04-28T05:26:40;99227.72;;;8.15;100.00
9672;BME280;4874;43.568;27.824;2023-04-28T05:29:06;99227.00;;;8.24;100.00
9672;BME280;4874;43.568;27.824;2023-04-28T05:31:33;99223.97;;;8.28;100.00
9672;BME280;4874;43.568;27.824;2023-04-28T05:33:59;99218.56;;;8.41;100.00
9672;BME280;4874;43.568;27.824;2023-04-28T05:36:26;99231.66;;;8.43;100.00
9672;BME280;4874;43.568;27.824;2023-04-28T05:38:53;99221.41;;;8.49;100.00
9672;BME280;4874;43.568;27.824;2023-04-28T05:41:20;99235.28;;;8.73;100.00
9672;BME280;4874;43.568;27.824;2023-04-28T05:43:46;99243.72;;;8.67;100.00
9672;BME280;4874;43.568;27.824;2023-04-28T05:46:16;99241.81;;;8.90;100.00
9672;BME280;4874;43.568;27.824;2023-04-28T05:48:54;99249.19;;;9.07;100.00
9672;BME280;4874;43.568;27.824;2023-04-28T05:51:21;99252.38;;;9.21;100.00
9672;BME280;4874;43.568;27.824;2023-04-28T05:53:48;99250.56;;;9.63;100.00
9672;BME280;4874;43.568;27.824;2023-04-28T05:56:15;99236.88;;;9.37;100.00
9672;BME280;4874;43.568;27.824;2023-04-28T05:58:42;99243.72;;;9.40;100.00
9672;BME280;4874;43.568;27.824;2023-04-28T06:01:10;99246.22;;;9.62;100.00
9672;BME280;4874;43.568;27.824;2023-04-28T06:03:37;99243.44;;;9.94;100.00
9672;BME280;4874;43.568;27.824;2023-04-28T06:06:04;99251.28;;;10.35;100.00
9672;BME280;4874;43.568;27.824;2023-04-28T06:08:35;99258.09;;;9.98;98.16
9672;BME280;4874;43.568;27.824;2023-04-28T06:11:01;99256.00;;;10.22;95.41
9672;BME280;4874;43.568;27.824;2023-04-28T06:13:28;99243.84;;;10.19;96.13
9672;BME280;4874;43.568;27.824;2023-04-28T06:15:54;99247.13;;;10.51;94.57
9672;BME280;4874;43.568;27.824;2023-04-28T06:18:22;99243.66;;;10.70;92.72
9672;BME280;4874;43.568;27.824;2023-04-28T06:20:49;99251.31;;;11.40;92.40
9672;BME280;4874;43.568;27.824;2023-04-28T06:23:16;99245.63;;;11.06;90.39
9672;BME280;4874;43.568;27.824;2023-04-28T06:25:42;99249.41;;;11.13;88.72
9672;BME280;4874;43.568;27.824;2023-04-28T06:28:09;99252.44;;;11.37;86.75
9672;BME280;4874;43.568;27.824;2023-04-28T06:30:37;99256.09;;;11.27;85.68
9672;BME280;4874;43.568;27.824;2023-04-28T06:33:04;99258.91;;;11.25;84.73
9672;BME280;4874;43.568;27.824;2023-04-28T06:35:30;99257.53;;;11.12;81.47
9672;BME280;4874;43.568;27.824;2023-04-28T06:38:01;99252.16;;;11.40;81.83
9672;BME280;4874;43.568;27.824;2023-04-28T06:40:28;99238.97;;;11.48;78.84
9672;BME280;4874;43.568;27.824;2023-04-28T06:42:55;99265.91;;;11.92;78.96
9672;BME280;4874;43.568;27.824;2023-04-28T06:45:21;99254.66;;;12.07;79.04
9672;BME280;4874;43.568;27.824;2023-04-28T06:47:48;99256.88;;;11.75;79.05
9672;BME280;4874;43.568;27.824;2023-04-28T06:50:15;99262.84;;;11.87;78.92
9672;BME280;4874;43.568;27.824;2023-04-28T06:52:41;99251.91;;;12.26;77.50
9672;BME280;4874;43.568;27.824;2023-04-28T06:55:08;99254.69;;;11.51;75.65
9672;BME280;4874;43.568;27.824;2023-04-28T06:57:35;99261.28;;;11.94;75.96
9672;BME280;4874;43.568;27.824;2023-04-28T07:00:03;99260.44;;;12.03;74.01
9672;BME280;4874;43.568;27.824;2023-04-28T07:02:29;99257.06;;;12.01;73.94
9672;BME280;4874;43.568;27.824;2023-04-28T07:04:57;99255.50;;;12.08;73.66
9672;BME280;4874;43.568;27.824;2023-04-28T07:07:23;99251.06;;;11.99;72.63
9672;BME280;4874;43.568;27.824;2023-04-28T07:09:50;99255.88;;;11.76;72.45
9672;BME280;4874;43.568;27.824;2023-04-28T07:12:19;99253.81;;;12.07;71.05
9672;BME280;4874;43.568;27.824;2023-04-28T07:14:46;99246.78;;;12.15;70.24
9672;BME280;4874;43.568;27.824;2023-04-28T07:17:12;99237.75;;;12.53;69.29
9672;BME280;4874;43.568;27.824;2023-04-28T07:19:39;99233.72;;;12.49;67.62
9672;BME280;4874;43.568;27.824;2023-04-28T07:22:06;99242.72;;;12.83;67.54
9672;BME280;4874;43.568;27.824;2023-04-28T07:24:32;99236.81;;;13.07;68.29
9672;BME280;4874;43.568;27.824;2023-04-28T07:26:59;99238.66;;;12.79;64.03
9672;BME280;4874;43.568;27.824;2023-04-28T07:29:26;99236.06;;;12.52;64.49
9672;BME280;4874;43.568;27.824;2023-04-28T07:32:01;99242.81;;;12.73;64.92
9672;BME280;4874;43.568;27.824;2023-04-28T07:34:32;99248.09;;;12.56;64.95
9672;BME280;4874;43.568;27.824;2023-04-28T07:36:59;99250.47;;;12.59;64.87
9672;BME280;4874;43.568;27.824;2023-04-28T07:39:26;99234.69;;;12.48;65.22
9672;BME280;4874;43.568;27.824;2023-04-28T07:41:53;99241.19;;;12.80;65.06
9672;BME280;4874;43.568;27.824;2023-04-28T07:44:20;99233.72;;;12.84;64.39
9672;BME280;4874;43.568;27.824;2023-04-28T07:46:46;99248.63;;;13.04;65.20
9672;BME280;4874;43.568;27.824;2023-04-28T07:49:14;99236.69;;;12.81;63.87
9672;BME280;4874;43.568;27.824;2023-04-28T07:51:41;99237.47;;;13.44;63.98
9672;BME280;4874;43.568;27.824;2023-04-28T07:54:08;99223.63;;;13.05;62.85
9672;BME280;4874;43.568;27.824;2023-04-28T07:56:34;99225.84;;;13.53;61.95
9672;BME280;4874;43.568;27.824;2023-04-28T07:59:01;99231.78;;;13.64;61.32
9672;BME280;4874;43.568;27.824;2023-04-28T08:01:27;99248.91;;;13.87;57.20
9672;BME280;4874;43.568;27.824;2023-04-28T08:03:54;99239.81;;;13.47;57.60
9672;BME280;4874;43.568;27.824;2023-04-28T08:06:21;99242.84;;;13.52;56.53
9672;BME280;4874;43.568;27.824;2023-04-28T08:08:47;99236.97;;;13.48;55.32
9672;BME280;4874;43.568;27.824;2023-04-28T08:11:14;99237.19;;;13.55;55.28
9672;BME280;4874;43.568;27.824;2023-04-28T08:13:41;99236.94;;;13.40;55.29
9672;BME280;4874;43.568;27.824;2023-04-28T08:16:07;99239.34;;;13.34;54.97
9672;BME280;4874;43.568;27.824;2023-04-28T08:18:34;99238.53;;;13.33;55.48
9672;BME280;4874;43.568;27.824;2023-04-28T08:21:00;99238.63;;;13.24;53.92
9672;BME280;4874;43.568;27.824;2023-04-28T08:23:27;99222.72;;;13.57;54.22
9672;BME280;4874;43.568;27.824;2023-04-28T08:25:56;99208.84;;;13.79;54.55
9672;BME280;4874;43.568;27.824;2023-04-28T08:28:22;99233.22;;;13.59;54.31
9672;BME280;4874;43.568;27.824;2023-04-28T08:30:49;99223.25;;;13.94;53.88
9672;BME280;4874;43.568;27.824;2023-04-28T08:33:15;99213.69;;;13.84;54.03
9672;BME280;4874;43.568;27.824;2023-04-28T08:35:42;99228.81;;;13.75;54.33
9672;BME280;4874;43.568;27.824;2023-04-28T08:38:08;99218.53;;;13.55;54.64
9672;BME280;4874;43.568;27.824;2023-04-28T08:40:39;99209.97;;;13.26;54.21
9672;BME280;4874;43.568;27.824;2023-04-28T08:43:08;99202.09;;;13.67;55.15
9672;BME280;4874;43.568;27.824;2023-04-28T08:45:42;99217.13;;;14.02;54.49
9672;BME280;4874;43.568;27.824;2023-04-28T08:48:17;99204.66;;;13.51;54.48
9672;BME280;4874;43.568;27.824;2023-04-28T08:50:49;99208.78;;;13.71;54.56
9672;BME280;4874;43.568;27.824;2023-04-28T08:53:25;99206.91;;;13.97;53.78
9672;BME280;4874;43.568;27.824;2023-04-28T08:55:55;99188.44;;;13.70;53.24
9672;BME280;4874;43.568;27.824;2023-04-28T08:58:22;99202.53;;;13.88;53.66
9672;BME280;4874;43.568;27.824;2023-04-28T09:00:50;99212.25;;;13.97;54.32
9672;BME280;4874;43.568;27.824;2023-04-28T09:03:17;99194.91;;;13.93;52.96
9672;BME280;4874;43.568;27.824;2023-04-28T09:05:43;99195.22;;;13.65;52.07
9672;BME280;4874;43.568;27.824;2023-04-28T09:08:10;99203.88;;;13.92;51.85
9672;BME280;4874;43.568;27.824;2023-04-28T09:10:37;99198.03;;;13.89;52.62
9672;BME280;4874;43.568;27.824;2023-04-28T09:13:04;99193.22;;;13.92;52.94
9672;BME280;4874;43.568;27.824;2023-04-28T09:15:37;99196.25;;;13.64;53.26
9672;BME280;4874;43.568;27.824;2023-04-28T09:18:06;99199.00;;;13.54;53.37
9672;BME280;4874;43.568;27.824;2023-04-28T09:20:34;99193.31;;;13.49;52.61
9672;BME280;4874;43.568;27.824;2023-04-28T09:28:41;99176.84;;;13.87;51.29
9672;BME280;4874;43.568;27.824;2023-04-28T09:31:23;99184.38;;;14.26;51.39
9672;BME280;4874;43.568;27.824;2023-04-28T09:33:57;99189.06;;;14.32;51.26
9672;BME280;4874;43.568;27.824;2023-04-28T09:36:27;99191.63;;;14.57;50.62
9672;BME280;4874;43.568;27.824;2023-04-28T09:38:57;99185.75;;;14.04;51.29
9672;BME280;4874;43.568;27.824;2023-04-28T09:41:34;99188.94;;;14.49;50.25
9672;BME280;4874;43.568;27.824;2023-04-28T09:46:44;99165.69;;;13.92;51.61
9672;BME280;4874;43.568;27.824;2023-04-28T09:49:11;99186.16;;;14.17;50.77
9672;BME280;4874;43.568;27.824;2023-04-28T09:51:38;99172.56;;;14.52;49.44
9672;BME280;4874;43.568;27.824;2023-04-28T09:54:06;99168.13;;;14.69;50.25
9672;BME280;4874;43.568;27.824;2023-04-28T09:56:33;99173.09;;;14.48;51.04
9672;BME280;4874;43.568;27.824;2023-04-28T09:59:06;99175.97;;;15.02;50.01
9672;BME280;4874;43.568;27.824;2023-04-28T10:01:37;99167.09;;;14.62;49.52
9672;BME280;4874;43.568;27.824;2023-04-28T10:04:06;99164.09;;;14.57;48.62
9672;BME280;4874;43.568;27.824;2023-04-28T10:06:33;99183.09;;;14.54;47.57
9672;BME280;4874;43.568;27.824;2023-04-28T10:09:04;99161.72;;;14.38;47.91
9672;BME280;4874;43.568;27.824;2023-04-28T10:11:31;99167.09;;;14.70;47.50
9672;BME280;4874;43.568;27.824;2023-04-28T10:13:59;99167.78;;;14.72;47.45
9672;BME280;4874;43.568;27.824;2023-04-28T10:16:26;99168.78;;;14.95;47.83
9672;BME280;4874;43.568;27.824;2023-04-28T10:18:55;99160.75;;;14.87;47.92
9672;BME280;4874;43.568;27.824;2023-04-28T10:21:22;99184.97;;;14.61;48.19
9672;BME280;4874;43.568;27.824;2023-04-28T10:24:01;99165.59;;;15.15;47.95
9672;BME280;4874;43.568;27.824;2023-04-28T10:26:52;99167.78;;;15.44;47.28
9672;BME280;4874;43.568;27.824;2023-04-28T10:29:22;99165.44;;;14.77;47.83
9672;BME280;4874;43.568;27.824;2023-04-28T10:34:35;99177.78;;;14.78;49.57
9672;BME280;4874;43.568;27.824;2023-04-28T10:37:01;99174.56;;;14.34;49.63
9672;BME280;4874;43.568;27.824;2023-04-28T10:39:28;99172.53;;;14.28;47.63
9672;BME280;4874;43.568;27.824;2023-04-28T10:41:55;99174.47;;;14.84;47.42
9672;BME280;4874;43.568;27.824;2023-04-28T10:47:01;99164.47;;;15.10;47.25
9672;BME280;4874;43.568;27.824;2023-04-28T10:52:59;99162.03;;;15.63;47.62
9672;BME280;4874;43.568;27.824;2023-04-28T11:00:39;99148.97;;;15.76;46.49
9672;BME280;4874;43.568;27.824;2023-04-28T11:03:06;99166.13;;;16.28;46.36
9672;BME280;4874;43.568;27.824;2023-04-28T11:05:33;99170.38;;;15.76;46.81
9672;BME280;4874;43.568;27.824;2023-04-28T11:13:29;99153.06;;;15.32;47.25
9672;BME280;4874;43.568;27.824;2023-04-28T11:16:02;99158.41;;;15.32;48.39
9672;BME280;4874;43.568;27.824;2023-04-28T11:18:48;99165.59;;;14.67;48.55
9672;BME280;4874;43.568;27.824;2023-04-28T11:21:19;99162.94;;;15.07;48.46
9672;BME280;4874;43.568;27.824;2023-04-28T11:23:46;99158.38;;;15.64;47.02
9672;BME280;4874;43.568;27.824;2023-04-28T11:26:13;99161.25;;;15.47;46.80
9672;BME280;4874;43.568;27.824;2023-04-28T11:28:46;99143.25;;;15.79;46.66
9672;BME280;4874;43.568;27.824;2023-04-28T11:31:13;99149.00;;;15.68;46.10
9672;BME280;4874;43.568;27.824;2023-04-28T11:33:45;99154.38;;;15.52;46.84
9672;BME280;4874;43.568;27.824;2023-04-28T11:36:25;99156.25;;;14.95;46.95
9672;BME280;4874;43.568;27.824;2023-04-28T11:38:52;99161.94;;;15.16;46.71
9672;BME280;4874;43.568;27.824;2023-04-28T11:41:18;99147.00;;;16.09;46.35
9672;BME280;4874;43.568;27.824;2023-04-28T11:43:45;99143.09;;;16.19;46.84
9672;BME280;4874;43.568;27.824;2023-04-28T11:46:16;99145.47;;;15.68;46.55
9672;BME280;4874;43.568;27.824;2023-04-28T11:48:43;99163.78;;;15.08;48.07
9672;BME280;4874;43.568;27.824;2023-04-28T11:51:26;99164.78;;;14.91;48.79
9672;BME280;4874;43.568;27.824;2023-04-28T11:53:53;99158.25;;;15.42;48.29
9672;BME280;4874;43.568;27.824;2023-04-28T11:56:20;99156.06;;;15.37;46.72
9672;BME280;4874;43.568;27.824;2023-04-28T11:58:58;99164.03;;;15.69;47.14
9672;BME280;4874;43.568;27.824;2023-04-28T12:01:25;99156.88;;;15.54;46.72
9672;BME280;4874;43.568;27.824;2023-04-28T12:03:52;99146.97;;;15.78;46.91
9672;BME280;4874;43.568;27.824;2023-04-28T12:06:20;99145.50;;;15.60;47.11
9672;BME280;4874;43.568;27.824;2023-04-28T12:08:47;99138.78;;;15.64;45.48
9672;BME280;4874;43.568;27.824;2023-04-28T12:11:14;99161.38;;;15.53;45.24
9672;BME280;4874;43.568;27.824;2023-04-28T12:14:01;99159.41;;;15.39;46.37
9672;BME280;4874;43.568;27.824;2023-04-28T12:16:42;99152.41;;;15.30;45.46
9672;BME280;4874;43.568;27.824;2023-04-28T12:19:10;99131.97;;;15.61;45.31
9672;BME280;4874;43.568;27.824;2023-04-28T12:21:37;99134.06;;;15.82;44.67
9672;BME280;4874;43.568;27.824;2023-04-28T12:24:20;99132.69;;;16.24;45.12
9672;BME280;4874;43.568;27.824;2023-04-28T12:26:47;99104.91;;;15.87;45.09
9672;BME280;4874;43.568;27.824;2023-04-28T12:31:59;99147.53;;;15.33;45.77
9672;BME280;4874;43.568;27.824;2023-04-28T12:34:26;99153.22;;;15.22;46.03
9672;BME280;4874;43.568;27.824;2023-04-28T12:36:54;99132.19;;;15.19;45.45
9672;BME280;4874;43.568;27.824;2023-04-28T12:39:21;99128.53;;;14.80;46.37
9672;BME280;4874;43.568;27.824;2023-04-28T12:41:48;99130.38;;;14.96;46.42
9672;BME280;4874;43.568;27.824;2023-04-28T12:44:14;99116.75;;;15.54;46.46
9672;BME280;4874;43.568;27.824;2023-04-28T12:46:41;99124.03;;;15.76;45.58
9672;BME280;4874;43.568;27.824;2023-04-28T12:49:08;99104.00;;;15.64;45.64
9672;BME280;4874;43.568;27.824;2023-04-28T12:51:34;99108.31;;;15.73;45.63
9672;BME280;4874;43.568;27.824;2023-04-28T12:54:03;99115.31;;;15.11;46.29
9672;BME280;4874;43.568;27.824;2023-04-28T12:56:30;99114.78;;;15.15;46.87
9672;BME280;4874;43.568;27.824;2023-04-28T12:58:56;99127.69;;;14.96;46.80
9672;BME280;4874;43.568;27.824;2023-04-28T13:01:23;99107.81;;;14.82;46.96
9672;BME280;4874;43.568;27.824;2023-04-28T13:03:50;99114.59;;;15.33;46.10
9672;BME280;4874;43.568;27.824;2023-04-28T13:06:18;99099.28;;;15.03;46.50
9672;BME280;4874;43.568;27.824;2023-04-28T13:08:45;99101.28;;;15.01;47.01
9672;BME280;4874;43.568;27.824;2023-04-28T13:11:12;99110.16;;;14.69;47.81
9672;BME280;4874;43.568;27.824;2023-04-28T13:13:48;99125.16;;;15.26;48.37
9672;BME280;4874;43.568;27.824;2023-04-28T13:16:14;99117.00;;;14.80;46.96
9672;BME280;4874;43.568;27.824;2023-04-28T13:18:41;99102.06;;;15.33;47.14
9672;BME280;4874;43.568;27.824;2023-04-28T13:21:07;99108.22;;;15.34;46.86
9672;BME280;4874;43.568;27.824;2023-04-28T13:23:34;99105.94;;;15.15;46.52
9672;BME280;4874;43.568;27.824;2023-04-28T13:26:01;99105.94;;;15.23;48.07
9672;BME280;4874;43.568;27.824;2023-04-28T13:28:29;99110.72;;;15.52;48.47
9672;BME280;4874;43.568;27.824;2023-04-28T13:30:56;99102.06;;;15.42;48.37
9672;BME280;4874;43.568;27.824;2023-04-28T13:33:22;99095.88;;;15.33;47.82
9672;BME280;4874;43.568;27.824;2023-04-28T13:35:49;99097.41;;;15.19;48.31
9672;BME280;4874;43.568;27.824;2023-04-28T13:38:15;99102.75;;;15.44;48.42
9672;BME280;4874;43.568;27.824;2023-04-28T13:40:42;99105.59;;;15.42;48.62
9672;BME280;4874;43.568;27.824;2023-04-28T13:43:09;99103.78;;;14.86;48.54